KCOF/COF METAR and TAF weather

Enter ICAO airport designator
Station Type Date Time Source
KCOF METAR 2018/04/26 14:56 UTC NOAA

KCOF 261456Z 30005KT 10SM FEW023 FEW250 24/16 A2995 RMK AO2A SLP146 T02350158 51009 $


Station Type Date Time Source
KCOF Decoded METAR 2018/04/26 14:56 UTC NOAA

Cocoa / Patrick Air Force Base, FL, United States (KCOF) 28-14N 080-36W 3M
Apr 26, 2018 - 10:56 AM EDT / 2018.04.26 1456 UTC
Wind: from the WNW (300 degrees) at 6 MPH (5 KT):0
Visibility: 10 mile(s):0
Sky conditions: mostly clear
Temperature: 74.3 F (23.5 C)
Dew Point: 60.4 F (15.8 C)
Relative Humidity: 61%
Pressure (altimeter): 29.95 in. Hg (1014 hPa)
Pressure tendency: 0.03 inches (0.9 hPa) higher than three hours ago
ob: KCOF 261456Z 30005KT 10SM FEW023 FEW250 24/16 A2995 RMK AO2A SLP146 T02350158 51009
cycle: 15

Station Type Date Time Source
KCOF TAF 2018/04/26 10:11 UTC NOAA

TAF KCOF 261000Z 2610/2716 26006KT 9999 FEW035 SCT300 QNH2990INS
BECMG 2617/2618 21008KT 9999 SCT040 BKN250 QNH2992INS
BECMG 2623/2624 25010G15KT 9999 FEW050 BKN250 QNH2987INS TX27/2619Z TN17/2610Z FCST BY USAF WX MET TECH


Example: see airport list